Time;durP1;ratioP1;P1;durP2;ratioP2;P2;SDS_P1;SDS_P2;PMS_P1;PMS_P2;Temp;Humidity;BMP_temperature;BMP_pressure;BME280_temperature;BME280_humidity;BME280_pressure;Samples;Min_cycle;Max_cycle;Signal;HPM_P1;HPM_P2
2022/09/25 00:01:16;;;;;;;9.90;8.90;;;13.50;99.90;;;;;;5092842;28;20576;-70
2022/09/25 00:03:44;;;;;;;13.53;9.47;;;13.50;99.90;;;;;;5091360;28;20987;-70
2022/09/25 00:06:15;;;;;;;15.00;9.10;;;13.50;99.90;;;;;;5090721;28;20656;-70
2022/09/25 00:08:43;;;;;;;8.90;8.00;;;13.60;99.90;;;;;;5090690;28;20612;-70
2022/09/25 00:11:13;;;;;;;9.90;8.67;;;13.50;99.90;;;;;;5092446;28;20620;-70
2022/09/25 00:13:42;;;;;;;9.93;8.97;;;13.50;99.90;;;;;;5091753;28;21034;-70
2022/09/25 00:16:12;;;;;;;10.67;9.30;;;13.50;99.90;;;;;;5092479;28;20580;-70
2022/09/25 00:21:30;;;;;;;10.27;9.27;;;13.30;99.90;;;;;;5092264;28;20602;-70
2022/09/25 00:23:59;;;;;;;9.87;8.97;;;13.40;99.90;;;;;;5091869;28;20582;-70
2022/09/25 00:26:29;;;;;;;10.67;9.30;;;13.50;99.90;;;;;;5091559;28;21358;-70
2022/09/25 00:28:59;;;;;;;9.73;8.73;;;13.40;99.90;;;;;;5091472;28;20628;-70
2022/09/25 00:31:28;;;;;;;13.80;10.63;;;13.40;99.90;;;;;;5090706;28;20629;-70
2022/09/25 00:34:00;;;;;;;11.40;9.30;;;13.40;99.90;;;;;;5091562;28;20653;-70
2022/09/25 00:36:28;;;;;;;10.57;9.47;;;13.30;99.90;;;;;;5091876;28;21000;-70
2022/09/25 00:38:57;;;;;;;11.00;9.87;;;13.40;99.90;;;;;;5078453;28;20782;-70
2022/09/25 00:41:27;;;;;;;10.83;9.70;;;13.40;99.90;;;;;;5071415;28;20911;-70
2022/09/25 00:43:56;;;;;;;11.43;9.20;;;13.40;99.90;;;;;;5071847;28;20612;-70
2022/09/25 00:46:28;;;;;;;10.20;8.97;;;13.30;99.90;;;;;;5082698;28;20632;-70
2022/09/25 00:49:02;;;;;;;11.15;9.93;;;13.30;99.90;;;;;;5091671;28;20612;-70
2022/09/25 00:51:37;;;;;;;11.90;10.70;;;13.30;99.90;;;;;;5090901;28;20214;-70
2022/09/25 00:54:06;;;;;;;11.03;9.93;;;13.30;99.90;;;;;;5091630;28;20608;-70
2022/09/25 00:56:38;;;;;;;10.70;9.60;;;13.30;99.90;;;;;;5088524;28;20623;-70
2022/09/25 00:59:09;;;;;;;10.75;9.60;;;13.20;99.90;;;;;;5081237;28;20610;-70
2022/09/25 01:01:37;;;;;;;10.30;9.40;;;13.30;99.90;;;;;;5090226;28;20191;-70
2022/09/25 01:04:07;;;;;;;10.00;9.10;;;13.30;99.90;;;;;;5091304;28;20755;-70
2022/09/25 01:06:35;;;;;;;10.50;9.50;;;13.30;99.90;;;;;;5090795;28;20612;-70
2022/09/25 01:09:04;;;;;;;12.20;9.47;;;13.30;99.90;;;;;;5091048;28;20622;-70
2022/09/25 01:11:32;;;;;;;11.40;9.93;;;13.30;99.90;;;;;;5089925;28;21048;-70
2022/09/25 01:14:03;;;;;;;10.40;9.30;;;13.30;99.90;;;;;;5092377;28;20954;-70
2022/09/25 01:16:38;;;;;;;12.27;11.13;;;13.30;99.90;;;;;;5090287;28;20642;-70
2022/09/25 01:19:18;;;;;;;11.60;10.40;;;13.30;99.90;;;;;;5091709;28;20252;-70
2022/09/25 01:21:51;;;;;;;11.13;10.03;;;13.30;99.90;;;;;;5090052;28;20609;-70
2022/09/25 01:24:54;;;;;;;14.03;9.97;;;13.20;99.90;;;;;;5090026;28;20630;-70
2022/09/25 01:27:38;;;;;;;12.47;11.10;;;13.10;99.90;;;;;;5088138;28;20668;-70
2022/09/25 01:30:10;;;;;;;12.97;9.90;;;13.10;99.90;;;;;;5071020;28;20576;-70
2022/09/25 01:32:58;;;;;;;11.00;9.97;;;13.10;99.90;;;;;;5078036;28;20605;-69
2022/09/25 01:35:36;;;;;;;11.23;10.10;;;13.10;99.90;;;;;;5090691;28;20645;-69
2022/09/25 01:38:14;;;;;;;12.87;9.60;;;13.10;99.90;;;;;;5084470;28;21154;-71
2022/09/25 01:40:49;;;;;;;11.17;10.03;;;13.20;99.90;;;;;;5074792;28;20653;-71
2022/09/25 01:43:20;;;;;;;10.27;9.30;;;13.20;99.90;;;;;;5090294;28;21158;-71
2022/09/25 01:45:53;;;;;;;10.47;9.40;;;13.20;99.90;;;;;;5090839;28;20590;-71
2022/09/25 01:48:25;;;;;;;14.73;9.73;;;13.20;99.90;;;;;;5088916;28;20644;-71
2022/09/25 01:50:59;;;;;;;11.17;10.07;;;13.20;99.90;;;;;;5089751;28;20209;-68
2022/09/25 01:53:33;;;;;;;10.67;9.83;;;13.20;99.90;;;;;;5089909;28;20583;-68
2022/09/25 01:56:06;;;;;;;9.97;9.00;;;13.30;99.90;;;;;;5090080;28;20652;-68
2022/09/25 01:58:41;;;;;;;10.30;9.40;;;13.30;99.90;;;;;;5089016;28;20929;-68
2022/09/25 02:01:15;;;;;;;13.40;10.03;;;13.30;99.90;;;;;;5079184;28;21166;-71
2022/09/25 02:03:48;;;;;;;11.93;10.83;;;13.30;99.90;;;;;;5090058;28;21158;-68
2022/09/25 02:06:19;;;;;;;9.47;8.57;;;13.30;99.90;;;;;;5090842;28;20584;-69
2022/09/25 02:08:52;;;;;;;9.57;8.57;;;13.40;99.90;;;;;;5089205;28;20990;-69
2022/09/25 02:11:28;;;;;;;10.00;9.17;;;13.40;99.90;;;;;;5090242;28;20636;-69
2022/09/25 02:13:59;;;;;;;9.43;8.60;;;13.40;99.90;;;;;;5090704;28;20613;-69
2022/09/25 02:16:34;;;;;;;9.27;8.37;;;13.40;99.90;;;;;;5090375;28;20674;-69
2022/09/25 02:21:52;;;;;;;7.40;6.70;;;13.40;99.90;;;;;;5049303;28;20592;-69
2022/09/25 02:24:24;;;;;;;8.13;7.33;;;13.40;99.90;;;;;;5090409;28;20609;-69
2022/09/25 02:26:52;;;;;;;8.33;7.47;;;13.40;99.90;;;;;;5090317;28;20616;-69
2022/09/25 02:29:20;;;;;;;6.80;6.30;;;13.40;99.90;;;;;;5089509;28;20619;-69
2022/09/25 02:31:53;;;;;;;7.43;6.78;;;13.40;99.90;;;;;;5090432;28;20625;-69
2022/09/25 02:34:21;;;;;;;7.10;6.40;;;13.40;99.90;;;;;;5090210;28;20229;-69
2022/09/25 02:36:49;;;;;;;8.43;7.70;;;13.50;99.90;;;;;;5089169;28;20937;-69
2022/09/25 02:39:20;;;;;;;8.77;7.87;;;13.40;99.90;;;;;;5074123;28;20603;-69
2022/09/25 02:42:13;;;;;;;10.30;8.67;;;13.50;99.90;;;;;;5085907;28;20977;-69
2022/09/25 02:44:58;;;;;;;10.43;9.53;;;13.50;99.90;;;;;;5070136;28;20561;-69
2022/09/25 02:47:36;;;;;;;12.47;11.20;;;13.50;99.90;;;;;;5077793;28;20644;-69
2022/09/25 02:50:13;;;;;;;12.83;11.47;;;13.50;99.90;;;;;;5090362;28;20578;-69
2022/09/25 02:52:46;;;;;;;13.53;12.00;;;13.50;99.90;;;;;;5090045;28;20576;-69
2022/09/25 02:55:23;;;;;;;13.17;11.97;;;13.40;99.90;;;;;;5068506;28;20959;-70
2022/09/25 02:57:55;;;;;;;12.55;11.25;;;13.40;99.90;;;;;;5087223;28;20623;-70
2022/09/25 03:00:23;;;;;;;11.63;10.53;;;13.40;99.90;;;;;;5090370;28;20652;-70
2022/09/25 03:02:58;;;;;;;11.83;10.63;;;13.50;99.90;;;;;;5089074;28;20700;-70
2022/09/25 03:05:26;;;;;;;12.30;11.10;;;13.50;99.90;;;;;;5090702;28;20592;-70
2022/09/25 03:10:44;;;;;;;12.97;11.63;;;13.50;99.90;;;;;;5090602;28;20580;-70
2022/09/25 03:13:14;;;;;;;12.90;11.60;;;13.40;99.90;;;;;;5088925;28;20589;-71
2022/09/25 03:15:45;;;;;;;12.43;11.13;;;13.40;99.90;;;;;;5089917;28;20606;-70
2022/09/25 03:18:15;;;;;;;11.93;10.83;;;13.40;99.90;;;;;;5089215;28;20597;-70
2022/09/25 03:20:43;;;;;;;12.03;10.93;;;13.40;99.90;;;;;;5093377;28;20953;-70
2022/09/25 03:23:11;;;;;;;10.87;9.43;;;13.40;99.90;;;;;;5092527;28;20994;-70
2022/09/25 03:25:39;;;;;;;11.20;10.10;;;13.40;99.90;;;;;;5093435;28;21486;-70
2022/09/25 03:28:10;;;;;;;10.63;9.63;;;13.40;99.90;;;;;;5092546;28;20665;-70
2022/09/25 03:30:39;;;;;;;10.83;9.93;;;13.40;99.90;;;;;;5094171;28;20589;-69
2022/09/25 03:33:09;;;;;;;10.07;9.20;;;13.40;99.90;;;;;;5092302;28;20615;-69
2022/09/25 03:35:39;;;;;;;10.33;9.43;;;13.40;99.90;;;;;;5093383;28;20636;-70
2022/09/25 03:38:09;;;;;;;10.80;9.70;;;13.40;99.90;;;;;;5083888;28;20981;-70
2022/09/25 03:40:37;;;;;;;9.83;8.80;;;13.30;99.90;;;;;;5092297;28;20608;-71
2022/09/25 03:43:05;;;;;;;9.70;8.80;;;13.30;99.90;;;;;;5088833;28;20628;-70
2022/09/25 03:45:33;;;;;;;10.33;9.30;;;13.40;99.90;;;;;;5092511;28;21032;-70
2022/09/25 03:48:01;;;;;;;10.80;9.70;;;13.30;99.90;;;;;;5091252;28;21238;-70
2022/09/25 03:50:29;;;;;;;18.97;17.07;;;13.40;99.90;;;;;;5093480;28;20613;-70
2022/09/25 03:52:59;;;;;;;29.40;23.70;;;13.40;99.90;;;;;;5092199;28;21002;-70
2022/09/25 03:55:27;;;;;;;30.83;21.47;;;13.40;99.90;;;;;;5092333;28;20587;-70
2022/09/25 03:57:55;;;;;;;17.67;14.23;;;13.40;99.90;;;;;;5092063;28;21143;-71
2022/09/25 04:00:23;;;;;;;11.90;10.23;;;13.40;99.90;;;;;;5092244;28;20632;-70
2022/09/25 04:02:51;;;;;;;10.43;9.50;;;13.40;99.90;;;;;;5092179;28;21240;-70
2022/09/25 04:05:20;;;;;;;10.07;9.17;;;13.40;99.90;;;;;;5091292;28;20628;-70
2022/09/25 04:07:48;;;;;;;9.60;8.80;;;13.40;99.90;;;;;;5092710;28;20636;-70
2022/09/25 04:10:17;;;;;;;9.77;8.23;;;13.40;99.90;;;;;;5091375;28;21258;-70
2022/09/25 04:12:45;;;;;;;9.47;8.67;;;13.40;99.90;;;;;;5092782;28;20628;-70
2022/09/25 04:15:14;;;;;;;10.90;9.87;;;13.30;99.90;;;;;;5092310;28;20587;-70
2022/09/25 04:17:42;;;;;;;9.90;9.00;;;13.30;99.90;;;;;;5090736;28;20619;-70
2022/09/25 04:20:10;;;;;;;10.33;9.30;;;13.30;99.90;;;;;;5091773;28;20615;-70
2022/09/25 04:22:37;;;;;;;11.03;10.03;;;13.30;99.90;;;;;;5092725;28;20634;-70
2022/09/25 04:25:06;;;;;;;11.73;9.70;;;13.30;99.90;;;;;;5090383;28;20600;-70
2022/09/25 04:27:36;;;;;;;9.87;8.97;;;13.30;99.90;;;;;;5091358;28;20630;-70
2022/09/25 04:30:05;;;;;;;9.60;8.70;;;13.30;99.90;;;;;;5090030;28;20635;-70
2022/09/25 04:35:19;;;;;;;8.80;7.87;;;13.20;99.90;;;;;;5091245;28;20660;-70
2022/09/25 04:37:47;;;;;;;9.07;8.20;;;13.20;99.90;;;;;;5088185;28;20692;-70
2022/09/25 04:40:15;;;;;;;8.93;8.07;;;13.20;99.90;;;;;;5088734;28;20633;-70
2022/09/25 04:42:44;;;;;;;8.80;8.10;;;13.20;99.90;;;;;;5091725;28;21091;-70
2022/09/25 04:45:12;;;;;;;8.80;7.97;;;13.20;99.90;;;;;;5090688;28;20629;-71
2022/09/25 04:47:40;;;;;;;8.40;7.60;;;13.20;99.90;;;;;;5091958;28;20657;-69
2022/09/25 04:50:08;;;;;;;9.57;8.67;;;13.20;99.90;;;;;;5090655;28;20657;-69
2022/09/25 04:52:37;;;;;;;9.50;8.60;;;13.20;99.90;;;;;;5091977;28;20624;-69
2022/09/25 04:55:05;;;;;;;9.27;8.47;;;13.20;99.90;;;;;;5090306;28;20633;-69
2022/09/25 04:57:33;;;;;;;10.07;9.17;;;13.20;99.90;;;;;;5091544;28;20624;-69
2022/09/25 05:00:04;;;;;;;10.17;9.17;;;13.20;99.90;;;;;;5089603;28;20599;-69
2022/09/25 05:02:32;;;;;;;11.30;10.10;;;13.20;99.90;;;;;;5091474;28;20588;-69
2022/09/25 05:05:00;;;;;;;11.30;8.33;;;13.20;99.90;;;;;;5090789;28;21220;-69
2022/09/25 05:07:28;;;;;;;8.93;8.13;;;13.20;99.90;;;;;;5090812;28;21230;-69
2022/09/25 05:09:56;;;;;;;7.10;6.40;;;13.20;99.90;;;;;;5090844;28;20657;-69
2022/09/25 05:12:24;;;;;;;6.60;6.00;;;13.20;99.90;;;;;;5090605;28;20628;-69
2022/09/25 05:14:52;;;;;;;6.53;5.93;;;13.20;99.90;;;;;;5090078;28;20625;-69
2022/09/25 05:17:22;;;;;;;6.00;5.00;;;13.10;99.90;;;;;;5089391;28;20661;-69
2022/09/25 05:19:50;;;;;;;5.27;4.87;;;13.10;99.90;;;;;;5090397;28;20629;-69
2022/09/25 05:22:17;;;;;;;6.00;5.47;;;13.10;99.90;;;;;;5091313;28;20709;-69
2022/09/25 05:24:45;;;;;;;5.13;4.73;;;13.10;99.90;;;;;;5090158;28;20633;-69
2022/09/25 05:27:13;;;;;;;5.67;5.13;;;13.10;99.90;;;;;;5090004;28;20617;-69
2022/09/25 05:29:41;;;;;;;5.60;5.20;;;13.10;99.90;;;;;;5090613;28;21016;-69
2022/09/25 05:32:09;;;;;;;5.07;4.50;;;13.10;99.90;;;;;;5089765;28;20641;-69
2022/09/25 05:34:38;;;;;;;5.50;5.10;;;13.10;99.90;;;;;;5089716;28;21262;-69
2022/09/25 05:37:06;;;;;;;5.37;4.93;;;13.10;99.90;;;;;;5091161;28;20999;-69
2022/09/25 05:39:34;;;;;;;5.30;4.90;;;13.10;99.90;;;;;;5070959;28;20625;-69
2022/09/25 05:42:02;;;;;;;4.40;4.10;;;13.10;99.90;;;;;;5070271;28;20609;-69
2022/09/25 05:44:31;;;;;;;5.63;4.57;;;13.10;99.90;;;;;;5087016;28;20624;-69
2022/09/25 05:46:59;;;;;;;5.50;5.10;;;13.10;99.90;;;;;;5090382;28;20675;-69
2022/09/25 05:49:27;;;;;;;5.30;4.80;;;13.10;99.90;;;;;;5088596;28;20636;-69
2022/09/25 05:51:56;;;;;;;4.30;4.00;;;13.10;99.90;;;;;;5088517;28;20625;-69
2022/09/25 05:54:24;;;;;;;5.43;5.03;;;13.10;99.90;;;;;;5088696;28;20621;-69
2022/09/25 05:56:53;;;;;;;4.50;4.10;;;13.10;99.90;;;;;;5087944;28;20649;-69
2022/09/25 05:59:23;;;;;;;5.20;4.70;;;13.10;99.90;;;;;;5087668;28;20600;-69
2022/09/25 06:01:54;;;;;;;6.00;5.50;;;13.20;99.90;;;;;;5086950;28;20591;-69
2022/09/25 06:04:21;;;;;;;5.40;5.00;;;13.20;99.90;;;;;;5092621;28;20697;-69
2022/09/25 06:06:49;;;;;;;6.90;6.40;;;13.30;99.90;;;;;;5091913;28;20602;-69
2022/09/25 06:09:19;;;;;;;6.00;5.40;;;13.30;99.90;;;;;;5089535;28;20688;-69
2022/09/25 06:11:47;;;;;;;6.90;6.30;;;13.30;99.90;;;;;;5087076;28;20624;-69
2022/09/25 06:14:15;;;;;;;6.00;5.60;;;13.30;99.90;;;;;;5071487;28;20607;-69
2022/09/25 06:16:43;;;;;;;6.20;5.60;;;13.30;99.90;;;;;;5088646;28;20592;-69
2022/09/25 06:19:11;;;;;;;7.00;5.73;;;13.30;99.90;;;;;;5087785;28;20623;-69
2022/09/25 06:21:39;;;;;;;5.37;4.93;;;13.40;99.90;;;;;;5088023;28;21630;-69
2022/09/25 06:24:09;;;;;;;7.03;6.43;;;13.50;99.90;;;;;;5087306;28;20621;-69
2022/09/25 06:26:39;;;;;;;4.80;4.40;;;13.50;99.90;;;;;;5088796;28;20579;-69
2022/09/25 06:29:07;;;;;;;4.60;4.30;;;13.60;99.90;;;;;;5086722;28;20644;-69
2022/09/25 06:31:37;;;;;;;4.57;4.10;;;13.60;99.90;;;;;;5086189;28;20628;-69
2022/09/25 06:34:05;;;;;;;5.33;3.47;;;13.50;99.90;;;;;;5085643;28;20660;-69
2022/09/25 06:36:33;;;;;;;4.40;4.00;;;13.50;99.90;;;;;;5087769;28;21295;-69
2022/09/25 06:39:01;;;;;;;3.70;3.40;;;13.60;99.90;;;;;;5091519;28;20999;-69
2022/09/25 06:41:29;;;;;;;4.47;3.83;;;13.60;99.90;;;;;;5084747;28;21137;-69
2022/09/25 06:43:59;;;;;;;3.47;3.13;;;13.50;99.90;;;;;;5094565;28;21178;-69
2022/09/25 06:46:36;;;;;;;4.13;3.83;;;13.60;99.90;;;;;;5104465;28;20813;-69
2022/09/25 06:49:05;;;;;;;4.83;4.50;;;13.60;99.90;;;;;;5089960;28;21161;-70
2022/09/25 06:51:35;;;;;;;12.87;11.97;;;13.60;99.90;;;;;;5088708;28;20625;-69
2022/09/25 06:54:03;;;;;;;5.37;5.07;;;13.70;99.90;;;;;;5091563;28;20989;-69
2022/09/25 06:56:30;;;;;;;3.23;2.93;;;13.80;99.90;;;;;;5085228;28;21230;-69
2022/09/25 06:59:00;;;;;;;3.47;3.27;;;13.70;99.90;;;;;;5094690;28;21210;-69
2022/09/25 07:01:28;;;;;;;4.00;3.60;;;13.80;99.90;;;;;;5094191;28;20613;-69
2022/09/25 07:03:55;;;;;;;4.83;4.20;;;13.70;99.90;;;;;;5094808;28;20633;-69
2022/09/25 07:06:30;;;;;;;4.43;4.13;;;13.70;99.90;;;;;;5094524;28;20612;-69
2022/09/25 07:08:58;;;;;;;5.07;4.60;;;13.80;99.90;;;;;;5094182;28;20586;-69
2022/09/25 07:11:27;;;;;;;3.20;3.00;;;13.70;99.90;;;;;;5094097;28;20616;-69
2022/09/25 07:13:55;;;;;;;8.07;7.40;;;13.70;99.90;;;;;;5094624;28;20613;-69
2022/09/25 07:16:29;;;;;;;5.43;5.03;;;13.80;99.90;;;;;;5093317;28;20639;-69
2022/09/25 07:18:59;;;;;;;3.87;3.60;;;14.00;99.90;;;;;;5094255;28;20584;-69
2022/09/25 07:21:31;;;;;;;5.00;4.50;;;14.00;99.90;;;;;;5094314;28;20607;-69
2022/09/25 07:23:59;;;;;;;5.10;4.23;;;14.10;99.90;;;;;;5094163;28;20974;-69
2022/09/25 07:26:28;;;;;;;4.47;4.17;;;14.10;99.90;;;;;;5093560;28;20633;-69
2022/09/25 07:28:59;;;;;;;5.00;4.60;;;14.10;99.90;;;;;;5093606;28;20612;-69
2022/09/25 07:31:29;;;;;;;5.90;5.40;;;14.10;99.90;;;;;;5092899;28;21279;-69
2022/09/25 07:33:59;;;;;;;6.43;5.90;;;14.10;99.90;;;;;;5092906;28;21261;-69
2022/09/25 07:36:27;;;;;;;6.33;5.80;;;14.10;99.90;;;;;;5093800;28;20945;-69
2022/09/25 07:38:57;;;;;;;5.40;4.90;;;14.10;99.90;;;;;;5079848;28;20927;-69
2022/09/25 07:41:25;;;;;;;4.73;4.43;;;14.20;99.90;;;;;;5085792;28;20604;-69
2022/09/25 07:43:55;;;;;;;4.97;4.50;;;14.30;99.90;;;;;;5093195;28;20587;-70
2022/09/25 07:46:22;;;;;;;5.00;4.60;;;14.30;99.90;;;;;;5078547;28;21071;-69
2022/09/25 07:48:52;;;;;;;5.20;4.80;;;14.50;99.90;;;;;;5083724;28;20588;-69
2022/09/25 07:51:20;;;;;;;4.80;4.40;;;14.70;99.90;;;;;;5093950;28;20661;-69
2022/09/25 07:53:49;;;;;;;7.10;4.80;;;14.80;99.90;;;;;;5091461;28;20672;-68
2022/09/25 07:56:17;;;;;;;5.30;4.80;;;14.70;99.90;;;;;;5093685;28;20645;-68
2022/09/25 07:58:45;;;;;;;6.93;5.00;;;14.90;99.90;;;;;;5092572;28;20621;-69
2022/09/25 08:01:13;;;;;;;4.73;4.43;;;14.70;99.90;;;;;;5093596;28;20949;-69
2022/09/25 08:03:41;;;;;;;5.87;5.37;;;14.80;99.90;;;;;;5092567;28;20632;-70
2022/09/25 08:06:12;;;;;;;5.30;4.90;;;15.00;99.90;;;;;;5093574;28;20678;-69
2022/09/25 08:08:41;;;;;;;6.07;5.57;;;15.30;99.90;;;;;;5093397;28;20593;-69
2022/09/25 08:11:27;;;;;;;5.90;5.50;;;15.50;99.90;;;;;;5093952;28;20671;-69
2022/09/25 08:13:55;;;;;;;6.87;6.17;;;15.30;99.90;;;;;;5092974;28;20636;-69
2022/09/25 08:16:23;;;;;;;6.47;5.97;;;15.40;99.90;;;;;;5093861;28;20632;-69
2022/09/25 08:18:52;;;;;;;5.60;5.20;;;15.30;99.90;;;;;;5093293;28;20613;-69
2022/09/25 08:21:21;;;;;;;6.83;6.00;;;14.90;99.90;;;;;;5093403;28;20613;-69
2022/09/25 08:23:51;;;;;;;11.63;6.87;;;14.70;99.90;;;;;;5099546;28;20643;-69
2022/09/25 08:26:20;;;;;;;6.53;6.03;;;14.90;99.90;;;;;;5102786;28;20625;-69
2022/09/25 08:28:49;;;;;;;8.87;7.73;;;15.10;99.90;;;;;;5093496;28;20965;-70
2022/09/25 08:31:17;;;;;;;11.00;7.20;;;15.00;99.90;;;;;;5093163;28;21253;-69
2022/09/25 08:33:46;;;;;;;6.93;6.33;;;15.00;99.90;;;;;;5092977;28;20621;-69
2022/09/25 08:36:14;;;;;;;8.03;6.63;;;15.40;99.90;;;;;;5092653;28;20949;-69
2022/09/25 08:38:45;;;;;;;8.40;6.33;;;15.40;99.90;;;;;;5086375;28;20632;-69
2022/09/25 08:41:17;;;;;;;8.03;7.33;;;15.40;99.90;;;;;;5101874;28;20632;-68
2022/09/25 08:43:54;;;;;;;9.20;8.40;;;15.10;99.90;;;;;;5092960;28;20573;-68
2022/09/25 08:49:15;;;;;;;6.87;6.27;;;15.00;99.90;;;;;;5092538;28;20585;-69
2022/09/25 08:51:47;;;;;;;7.23;6.53;;;14.90;99.90;;;;;;5092554;28;20660;-69
2022/09/25 08:54:23;;;;;;;8.37;7.57;;;14.80;99.90;;;;;;5095818;28;20611;-69
2022/09/25 08:57:10;;;;;;;8.97;7.60;;;14.90;99.90;;;;;;5092284;28;20656;-69
2022/09/25 08:59:43;;;;;;;7.47;6.83;;;14.80;99.90;;;;;;5091016;28;20616;-69
2022/09/25 09:02:16;;;;;;;8.20;7.10;;;14.80;99.90;;;;;;5084173;28;20625;-69
2022/09/25 09:04:48;;;;;;;11.53;7.80;;;14.80;99.90;;;;;;5092758;28;20612;-69
2022/09/25 09:07:22;;;;;;;8.20;7.40;;;14.70;99.90;;;;;;5091115;28;20670;-69
2022/09/25 09:10:00;;;;;;;8.93;8.13;;;14.70;99.90;;;;;;5084126;28;20985;-69
2022/09/25 09:12:35;;;;;;;8.67;7.87;;;14.70;99.90;;;;;;5078344;28;21082;-69
2022/09/25 09:15:21;;;;;;;9.43;8.53;;;14.80;99.90;;;;;;5092229;28;20597;-69
2022/09/25 09:17:49;;;;;;;9.00;7.67;;;14.80;99.90;;;;;;5087963;28;20635;-69
2022/09/25 09:20:19;;;;;;;9.40;8.60;;;14.80;99.90;;;;;;5092047;28;20679;-70
2022/09/25 09:22:51;;;;;;;11.23;8.70;;;14.80;99.90;;;;;;5091694;28;20617;-69
2022/09/25 09:25:28;;;;;;;10.23;9.33;;;14.80;99.90;;;;;;5091730;28;20613;-69
2022/09/25 09:28:19;;;;;;;11.47;10.27;;;14.70;99.90;;;;;;5091303;28;20579;-69
2022/09/25 09:30:55;;;;;;;11.03;9.90;;;14.70;99.90;;;;;;5090528;28;21009;-69
2022/09/25 09:33:40;;;;;;;13.07;10.20;;;14.40;99.90;;;;;;5089481;28;20979;-69
2022/09/25 09:36:15;;;;;;;12.40;10.97;;;14.30;99.90;;;;;;5091132;28;20620;-70
2022/09/25 09:38:53;;;;;;;11.67;10.43;;;14.30;99.90;;;;;;5083159;28;20619;-69
2022/09/25 09:41:33;;;;;;;12.57;10.17;;;14.20;99.90;;;;;;5091040;28;20580;-69
2022/09/25 09:44:12;;;;;;;11.97;10.43;;;14.10;99.90;;;;;;5085820;28;20584;-69
2022/09/25 09:46:52;;;;;;;12.47;9.40;;;14.20;99.90;;;;;;5082972;28;20989;-69
2022/09/25 09:49:25;;;;;;;9.83;8.80;;;14.20;99.90;;;;;;5084311;28;20601;-69
2022/09/25 09:52:00;;;;;;;11.87;9.83;;;14.20;99.90;;;;;;5091081;28;20660;-69
2022/09/25 09:54:41;;;;;;;7.87;7.13;;;14.30;99.90;;;;;;5090621;28;20609;-69
2022/09/25 09:57:17;;;;;;;6.60;5.97;;;14.30;99.90;;;;;;5083380;28;20760;-69
2022/09/25 09:59:49;;;;;;;4.50;4.20;;;14.20;99.90;;;;;;5094353;28;20599;-69
2022/09/25 10:02:30;;;;;;;4.73;4.43;;;14.30;99.90;;;;;;5091924;28;20965;-69
2022/09/25 10:05:02;;;;;;;3.47;3.27;;;14.30;99.90;;;;;;5090994;28;20592;-70
2022/09/25 10:07:34;;;;;;;5.03;4.63;;;14.30;99.90;;;;;;5092184;28;20575;-70
2022/09/25 10:10:02;;;;;;;4.83;4.43;;;14.20;99.90;;;;;;5090374;28;20624;-70
2022/09/25 10:12:33;;;;;;;3.77;3.53;;;14.30;99.90;;;;;;5095549;28;21039;-69
2022/09/25 10:15:04;;;;;;;3.97;3.67;;;14.30;99.90;;;;;;5091821;28;20604;-69
2022/09/25 10:17:36;;;;;;;4.80;4.50;;;14.20;99.90;;;;;;5094997;28;21110;-70
2022/09/25 10:20:15;;;;;;;4.00;3.80;;;14.30;99.90;;;;;;5091751;28;21148;-69
2022/09/25 10:22:46;;;;;;;4.80;4.40;;;14.20;99.90;;;;;;5094176;28;20596;-70
2022/09/25 10:25:14;;;;;;;4.50;4.20;;;14.30;99.90;;;;;;5088620;28;20613;-70
2022/09/25 10:27:48;;;;;;;5.40;4.90;;;14.30;99.90;;;;;;5091294;28;20592;-69
2022/09/25 10:30:19;;;;;;;7.67;7.07;;;14.40;99.90;;;;;;5093420;28;20632;-71
2022/09/25 10:33:00;;;;;;;6.37;5.87;;;14.40;99.90;;;;;;5095671;28;20606;-71
2022/09/25 10:35:39;;;;;;;5.83;5.33;;;14.50;99.90;;;;;;5093476;28;20784;-71
2022/09/25 10:38:21;;;;;;;4.70;4.40;;;14.40;99.90;;;;;;5094150;28;20620;-70
2022/09/25 10:40:59;;;;;;;4.50;4.20;;;14.50;99.90;;;;;;5095457;28;20573;-70
2022/09/25 10:43:29;;;;;;;5.23;4.00;;;14.40;99.90;;;;;;5075248;28;20598;-68
2022/09/25 10:46:11;;;;;;;3.33;3.13;;;14.40;99.90;;;;;;5098403;28;20617;-69
2022/09/25 10:51:27;;;;;;;3.47;3.27;;;14.70;99.90;;;;;;5093480;28;20661;-69
2022/09/25 10:54:11;;;;;;;3.70;3.50;;;15.00;99.90;;;;;;5096968;28;20955;-69
2022/09/25 10:56:40;;;;;;;4.13;3.83;;;15.10;99.90;;;;;;5097148;28;20988;-69
2022/09/25 10:59:18;;;;;;;4.07;3.80;;;15.20;99.90;;;;;;5098329;28;20682;-70
2022/09/25 11:01:49;;;;;;;4.20;3.90;;;15.20;99.90;;;;;;5098517;28;20613;-69
2022/09/25 11:04:20;;;;;;;6.13;5.57;;;15.40;99.90;;;;;;5108739;27;20609;-69
2022/09/25 11:06:51;;;;;;;8.23;7.43;;;15.60;99.90;;;;;;5092660;28;20689;-69
2022/09/25 11:09:21;;;;;;;7.17;6.47;;;15.80;99.90;;;;;;5095462;28;21139;-69
2022/09/25 11:11:51;;;;;;;15.53;10.73;;;16.00;99.90;;;;;;5109025;28;20648;-69
2022/09/25 11:14:32;;;;;;;6.33;5.03;;;16.20;99.90;;;;;;5107509;28;20947;-69
2022/09/25 11:17:04;;;;;;;3.50;3.30;;;16.10;99.90;;;;;;5099122;28;20624;-69
2022/09/25 11:19:34;;;;;;;4.90;4.40;;;16.40;99.90;;;;;;5093409;28;20629;-69
2022/09/25 11:22:16;;;;;;;4.40;4.10;;;16.80;99.90;;;;;;5093441;28;20615;-69
2022/09/25 11:24:51;;;;;;;5.23;4.67;;;17.00;99.90;;;;;;5095874;28;20597;-70
2022/09/25 11:27:24;;;;;;;3.13;2.93;;;17.50;99.90;;;;;;5112158;28;20961;-69
2022/09/25 11:30:03;;;;;;;3.93;3.63;;;17.50;99.90;;;;;;5095313;28;20620;-69
2022/09/25 11:32:38;;;;;;;3.17;2.97;;;16.90;99.90;;;;;;5088947;28;20644;-69
2022/09/25 11:35:40;;;;;;;4.80;4.20;;;16.90;99.90;;;;;;5094303;28;20648;-69
2022/09/25 11:38:17;;;;;;;3.13;2.93;;;16.90;99.90;;;;;;5093594;28;20610;-69
2022/09/25 11:41:11;;;;;;;3.80;3.23;;;16.70;99.90;;;;;;5091907;28;20640;-69
2022/09/25 11:43:51;;;;;;;6.27;5.77;;;16.60;99.90;;;;;;5095928;28;20643;-69
2022/09/25 11:46:26;;;;;;;3.73;3.53;;;17.00;99.90;;;;;;5093351;28;20613;-69
2022/09/25 11:49:11;;;;;;;3.47;3.27;;;16.90;99.90;;;;;;5092845;28;20947;-69
2022/09/25 11:52:18;;;;;;;2.80;2.70;;;16.90;99.90;;;;;;5089974;28;20612;-69
2022/09/25 11:55:26;;;;;;;2.40;2.20;;;17.00;99.90;;;;;;5091455;28;21204;-69
2022/09/25 11:58:04;;;;;;;2.30;2.20;;;17.10;99.90;;;;;;5092339;28;20652;-69
2022/09/25 12:00:43;;;;;;;3.10;2.90;;;17.10;99.90;;;;;;5091693;28;20593;-69
2022/09/25 12:03:34;;;;;;;7.40;5.80;;;17.40;99.90;;;;;;5085929;28;20617;-69
2022/09/25 12:06:37;;;;;;;5.03;4.60;;;17.70;99.90;;;;;;5072667;28;21129;-69
2022/09/25 12:09:18;;;;;;;4.70;4.40;;;17.80;99.90;;;;;;5083529;28;20600;-69
2022/09/25 12:11:57;;;;;;;3.60;3.40;;;18.00;99.90;;;;;;5092876;28;20596;-69
2022/09/25 12:14:32;;;;;;;4.73;4.43;;;18.00;99.90;;;;;;5093041;28;20605;-69
2022/09/25 12:17:07;;;;;;;4.13;3.83;;;18.60;99.90;;;;;;5090328;28;20575;-70
2022/09/25 12:19:46;;;;;;;3.97;3.13;;;18.60;99.90;;;;;;5093278;28;20596;-69
2022/09/25 12:22:24;;;;;;;4.03;3.63;;;19.20;99.90;;;;;;5102208;28;20608;-69
2022/09/25 12:25:02;;;;;;;4.13;3.83;;;19.20;99.90;;;;;;5113652;28;20582;-69
2022/09/25 12:27:50;;;;;;;3.70;3.50;;;18.30;99.90;;;;;;5090846;28;20605;-70
2022/09/25 12:30:20;;;;;;;3.80;3.50;;;18.60;99.90;;;;;;5092664;28;21143;-69
2022/09/25 12:33:14;;;;;;;3.60;3.40;;;18.70;99.90;;;;;;5092930;28;21043;-69
2022/09/25 12:35:51;;;;;;;3.70;3.40;;;18.20;99.90;;;;;;5092242;28;20649;-69
2022/09/25 12:38:30;;;;;;;5.93;5.00;;;18.10;99.90;;;;;;5090885;28;20621;-69
2022/09/25 12:41:06;;;;;;;4.07;3.77;;;18.00;99.90;;;;;;5095851;28;20614;-69
2022/09/25 12:43:42;;;;;;;6.30;5.70;;;17.70;99.90;;;;;;5091720;28;20620;-69
2022/09/25 12:46:20;;;;;;;8.77;7.77;;;17.50;99.90;;;;;;5091152;28;20605;-69
2022/09/25 12:48:51;;;;;;;4.90;4.50;;;17.40;99.90;;;;;;5092914;28;20605;-69
2022/09/25 12:51:26;;;;;;;4.27;3.97;;;17.40;99.90;;;;;;5086496;28;20601;-69
2022/09/25 12:53:58;;;;;;;4.57;4.17;;;17.20;99.90;;;;;;5078662;28;20667;-69
2022/09/25 12:56:36;;;;;;;4.97;4.57;;;17.30;99.90;;;;;;5090242;28;20723;-69
2022/09/25 12:59:13;;;;;;;4.30;3.90;;;17.40;99.90;;;;;;5092272;28;20962;-69
2022/09/25 13:01:47;;;;;;;4.23;4.03;;;17.30;99.90;;;;;;5088271;28;20605;-69
2022/09/25 13:04:33;;;;;;;4.40;4.10;;;17.40;99.90;;;;;;5087854;28;20598;-69
2022/09/25 13:07:10;;;;;;;5.77;5.17;;;17.60;99.90;;;;;;5084817;28;21177;-69
2022/09/25 13:09:43;;;;;;;5.17;4.77;;;18.00;99.90;;;;;;5091562;28;20613;-69
2022/09/25 13:12:20;;;;;;;5.03;4.63;;;18.00;99.90;;;;;;5091307;28;20620;-69
2022/09/25 13:14:53;;;;;;;4.40;4.10;;;17.60;99.90;;;;;;5093385;28;20609;-69
2022/09/25 13:17:21;;;;;;;6.17;5.77;;;17.70;99.90;;;;;;5090942;28;20605;-69
2022/09/25 13:19:49;;;;;;;6.43;5.43;;;17.30;99.90;;;;;;5092386;28;20972;-70
2022/09/25 13:22:23;;;;;;;4.90;4.50;;;17.30;99.90;;;;;;5094993;28;20694;-70
2022/09/25 13:24:58;;;;;;;3.70;3.50;;;17.60;99.90;;;;;;5088557;28;20588;-68
2022/09/25 13:27:27;;;;;;;5.10;4.07;;;17.00;99.90;;;;;;5088925;28;20620;-69